sensor_id;sensor_type;location;lat;lon;timestamp;pressure;altitude;pressure_sealevel;temperature
8227;BMP180;4154;48.810;9.012;2023-12-22T00:02:08;95780.00;;;6.70
8227;BMP180;4154;48.810;9.012;2023-12-22T00:04:33;95755.00;;;6.90
8227;BMP180;4154;48.810;9.012;2023-12-22T00:06:59;95747.00;;;6.90
8227;BMP180;4154;48.810;9.012;2023-12-22T00:09:24;95753.00;;;7.00
8227;BMP180;4154;48.810;9.012;2023-12-22T00:11:50;95760.00;;;7.00
8227;BMP180;4154;48.810;9.012;2023-12-22T00:14:16;95775.00;;;7.00
8227;BMP180;4154;48.810;9.012;2023-12-22T00:16:41;95765.00;;;7.10
8227;BMP180;4154;48.810;9.012;2023-12-22T00:19:07;95745.00;;;7.10
8227;BMP180;4154;48.810;9.012;2023-12-22T00:21:32;95737.00;;;7.00
8227;BMP180;4154;48.810;9.012;2023-12-22T00:23:58;95727.00;;;7.10
8227;BMP180;4154;48.810;9.012;2023-12-22T00:26:24;95741.00;;;7.00
8227;BMP180;4154;48.810;9.012;2023-12-22T00:28:49;95750.00;;;7.10
8227;BMP180;4154;48.810;9.012;2023-12-22T00:31:15;95752.00;;;7.10
8227;BMP180;4154;48.810;9.012;2023-12-22T00:33:40;95779.00;;;7.10
8227;BMP180;4154;48.810;9.012;2023-12-22T00:36:07;95790.00;;;7.10
8227;BMP180;4154;48.810;9.012;2023-12-22T00:38:33;95814.00;;;7.00
8227;BMP180;4154;48.810;9.012;2023-12-22T00:40:59;95827.00;;;7.10
8227;BMP180;4154;48.810;9.012;2023-12-22T00:43:24;95841.00;;;7.10
8227;BMP180;4154;48.810;9.012;2023-12-22T00:45:50;95831.00;;;7.00
8227;BMP180;4154;48.810;9.012;2023-12-22T00:48:16;95829.00;;;7.00
8227;BMP180;4154;48.810;9.012;2023-12-22T00:50:42;95849.00;;;7.00
8227;BMP180;4154;48.810;9.012;2023-12-22T00:53:07;95815.00;;;6.90
8227;BMP180;4154;48.810;9.012;2023-12-22T00:55:33;95830.00;;;6.90
8227;BMP180;4154;48.810;9.012;2023-12-22T00:57:59;95826.00;;;7.00
8227;BMP180;4154;48.810;9.012;2023-12-22T01:00:24;95817.00;;;6.90
8227;BMP180;4154;48.810;9.012;2023-12-22T01:02:50;95815.00;;;6.90
8227;BMP180;4154;48.810;9.012;2023-12-22T01:05:16;95815.00;;;6.90
8227;BMP180;4154;48.810;9.012;2023-12-22T01:07:41;95803.00;;;6.90
8227;BMP180;4154;48.810;9.012;2023-12-22T01:10:07;95810.00;;;6.90
8227;BMP180;4154;48.810;9.012;2023-12-22T01:12:34;95785.00;;;7.00
8227;BMP180;4154;48.810;9.012;2023-12-22T01:15:00;95824.00;;;6.90
8227;BMP180;4154;48.810;9.012;2023-12-22T01:17:25;95812.00;;;6.90
8227;BMP180;4154;48.810;9.012;2023-12-22T01:19:51;95804.00;;;7.00
8227;BMP180;4154;48.810;9.012;2023-12-22T01:22:17;95795.00;;;7.00
8227;BMP180;4154;48.810;9.012;2023-12-22T01:24:43;95812.00;;;7.00
8227;BMP180;4154;48.810;9.012;2023-12-22T01:27:11;95820.00;;;6.90
8227;BMP180;4154;48.810;9.012;2023-12-22T01:29:37;95807.00;;;6.90
8227;BMP180;4154;48.810;9.012;2023-12-22T01:32:03;95799.00;;;6.90
8227;BMP180;4154;48.810;9.012;2023-12-22T01:34:29;95796.00;;;6.90
8227;BMP180;4154;48.810;9.012;2023-12-22T01:36:55;95808.00;;;6.90
8227;BMP180;4154;48.810;9.012;2023-12-22T01:39:20;95804.00;;;6.70
8227;BMP180;4154;48.810;9.012;2023-12-22T01:41:46;95807.00;;;6.70
8227;BMP180;4154;48.810;9.012;2023-12-22T01:44:11;95817.00;;;6.80
8227;BMP180;4154;48.810;9.012;2023-12-22T01:46:38;95821.00;;;6.70
8227;BMP180;4154;48.810;9.012;2023-12-22T01:49:05;95825.00;;;6.70
8227;BMP180;4154;48.810;9.012;2023-12-22T01:51:35;95832.00;;;6.60
8227;BMP180;4154;48.810;9.012;2023-12-22T01:54:02;95884.00;;;6.60
8227;BMP180;4154;48.810;9.012;2023-12-22T01:56:30;95847.00;;;6.60
8227;BMP180;4154;48.810;9.012;2023-12-22T01:59:00;95858.00;;;6.60
8227;BMP180;4154;48.810;9.012;2023-12-22T02:01:28;95852.00;;;6.60
8227;BMP180;4154;48.810;9.012;2023-12-22T02:03:54;95850.00;;;6.60
8227;BMP180;4154;48.810;9.012;2023-12-22T02:06:21;95856.00;;;6.60
8227;BMP180;4154;48.810;9.012;2023-12-22T02:08:47;95847.00;;;6.60
8227;BMP180;4154;48.810;9.012;2023-12-22T02:11:14;95850.00;;;6.60
8227;BMP180;4154;48.810;9.012;2023-12-22T02:13:41;95837.00;;;6.50
8227;BMP180;4154;48.810;9.012;2023-12-22T02:17:32;95858.00;;;6.60
8227;BMP180;4154;48.810;9.012;2023-12-22T02:22:06;95863.00;;;6.50
8227;BMP180;4154;48.810;9.012;2023-12-22T02:24:32;95858.00;;;6.60
8227;BMP180;4154;48.810;9.012;2023-12-22T02:27:28;95841.00;;;6.40
8227;BMP180;4154;48.810;9.012;2023-12-22T02:30:09;95869.00;;;6.40
8227;BMP180;4154;48.810;9.012;2023-12-22T02:32:42;95878.00;;;6.40
8227;BMP180;4154;48.810;9.012;2023-12-22T02:35:13;95859.00;;;6.40
8227;BMP180;4154;48.810;9.012;2023-12-22T02:37:40;95857.00;;;6.50
8227;BMP180;4154;48.810;9.012;2023-12-22T02:40:08;95853.00;;;6.50
8227;BMP180;4154;48.810;9.012;2023-12-22T02:42:37;95857.00;;;6.50
8227;BMP180;4154;48.810;9.012;2023-12-22T02:45:05;95842.00;;;6.50
8227;BMP180;4154;48.810;9.012;2023-12-22T02:47:31;95835.00;;;6.40
8227;BMP180;4154;48.810;9.012;2023-12-22T02:49:57;95831.00;;;6.60
8227;BMP180;4154;48.810;9.012;2023-12-22T02:52:23;95848.00;;;6.60
8227;BMP180;4154;48.810;9.012;2023-12-22T02:54:49;95840.00;;;6.50
8227;BMP180;4154;48.810;9.012;2023-12-22T02:57:15;95826.00;;;6.50
8227;BMP180;4154;48.810;9.012;2023-12-22T02:59:40;95836.00;;;6.60
8227;BMP180;4154;48.810;9.012;2023-12-22T03:02:06;95844.00;;;6.50
8227;BMP180;4154;48.810;9.012;2023-12-22T03:04:32;95832.00;;;6.60
8227;BMP180;4154;48.810;9.012;2023-12-22T03:06:57;95830.00;;;6.70
8227;BMP180;4154;48.810;9.012;2023-12-22T03:09:23;95816.00;;;6.70
8227;BMP180;4154;48.810;9.012;2023-12-22T03:11:49;95818.00;;;6.70
8227;BMP180;4154;48.810;9.012;2023-12-22T03:14:15;95826.00;;;6.70
8227;BMP180;4154;48.810;9.012;2023-12-22T03:16:40;95841.00;;;6.70
8227;BMP180;4154;48.810;9.012;2023-12-22T03:19:09;95850.00;;;6.70
8227;BMP180;4154;48.810;9.012;2023-12-22T03:21:35;95863.00;;;6.70
8227;BMP180;4154;48.810;9.012;2023-12-22T03:24:00;95837.00;;;6.80
8227;BMP180;4154;48.810;9.012;2023-12-22T03:26:27;95834.00;;;6.80
8227;BMP180;4154;48.810;9.012;2023-12-22T03:28:53;95855.00;;;6.80
8227;BMP180;4154;48.810;9.012;2023-12-22T03:31:19;95828.00;;;6.80
8227;BMP180;4154;48.810;9.012;2023-12-22T03:33:44;95864.00;;;6.70
8227;BMP180;4154;48.810;9.012;2023-12-22T03:36:10;95846.00;;;6.80
8227;BMP180;4154;48.810;9.012;2023-12-22T03:38:35;95853.00;;;6.80
8227;BMP180;4154;48.810;9.012;2023-12-22T03:41:01;95857.00;;;6.70
8227;BMP180;4154;48.810;9.012;2023-12-22T03:43:27;95881.00;;;6.70
8227;BMP180;4154;48.810;9.012;2023-12-22T03:45:52;95876.00;;;6.70
8227;BMP180;4154;48.810;9.012;2023-12-22T03:48:18;95870.00;;;6.70
8227;BMP180;4154;48.810;9.012;2023-12-22T03:50:43;95868.00;;;6.60
8227;BMP180;4154;48.810;9.012;2023-12-22T03:53:09;95866.00;;;6.60
8227;BMP180;4154;48.810;9.012;2023-12-22T03:55:35;95880.00;;;6.40
8227;BMP180;4154;48.810;9.012;2023-12-22T03:58:01;95857.00;;;6.40
8227;BMP180;4154;48.810;9.012;2023-12-22T04:00:26;95861.00;;;6.30
8227;BMP180;4154;48.810;9.012;2023-12-22T04:02:52;95835.00;;;6.20
8227;BMP180;4154;48.810;9.012;2023-12-22T04:05:17;95883.00;;;6.20
8227;BMP180;4154;48.810;9.012;2023-12-22T04:07:43;95872.00;;;6.20
8227;BMP180;4154;48.810;9.012;2023-12-22T04:10:09;95876.00;;;6.20
8227;BMP180;4154;48.810;9.012;2023-12-22T04:12:35;95863.00;;;6.20
8227;BMP180;4154;48.810;9.012;2023-12-22T04:15:00;95881.00;;;6.10
8227;BMP180;4154;48.810;9.012;2023-12-22T04:17:26;95875.00;;;6.00
8227;BMP180;4154;48.810;9.012;2023-12-22T04:19:51;95888.00;;;6.00
8227;BMP180;4154;48.810;9.012;2023-12-22T04:22:18;95875.00;;;6.00
8227;BMP180;4154;48.810;9.012;2023-12-22T04:24:43;95885.00;;;6.00
8227;BMP180;4154;48.810;9.012;2023-12-22T04:27:09;95860.00;;;6.10
8227;BMP180;4154;48.810;9.012;2023-12-22T04:29:34;95866.00;;;6.10
8227;BMP180;4154;48.810;9.012;2023-12-22T04:32:00;95887.00;;;6.10
8227;BMP180;4154;48.810;9.012;2023-12-22T04:34:26;95884.00;;;6.10
8227;BMP180;4154;48.810;9.012;2023-12-22T04:36:51;95928.00;;;6.10
8227;BMP180;4154;48.810;9.012;2023-12-22T04:39:17;95911.00;;;6.20
8227;BMP180;4154;48.810;9.012;2023-12-22T04:41:42;95896.00;;;6.20
8227;BMP180;4154;48.810;9.012;2023-12-22T04:44:08;95902.00;;;6.30
8227;BMP180;4154;48.810;9.012;2023-12-22T04:46:34;95923.00;;;6.20
8227;BMP180;4154;48.810;9.012;2023-12-22T04:48:59;95904.00;;;6.30
8227;BMP180;4154;48.810;9.012;2023-12-22T04:51:25;95889.00;;;6.20
8227;BMP180;4154;48.810;9.012;2023-12-22T04:53:51;95906.00;;;6.30
8227;BMP180;4154;48.810;9.012;2023-12-22T04:56:16;95914.00;;;6.20
8227;BMP180;4154;48.810;9.012;2023-12-22T04:58:42;95865.00;;;6.30
8227;BMP180;4154;48.810;9.012;2023-12-22T05:01:08;95870.00;;;6.30
8227;BMP180;4154;48.810;9.012;2023-12-22T05:03:33;95906.00;;;6.30
8227;BMP180;4154;48.810;9.012;2023-12-22T05:05:59;95884.00;;;6.30
8227;BMP180;4154;48.810;9.012;2023-12-22T05:08:25;95917.00;;;6.30
8227;BMP180;4154;48.810;9.012;2023-12-22T05:10:50;95930.00;;;6.30
8227;BMP180;4154;48.810;9.012;2023-12-22T05:13:16;95909.00;;;6.30
8227;BMP180;4154;48.810;9.012;2023-12-22T05:15:41;95901.00;;;6.40
8227;BMP180;4154;48.810;9.012;2023-12-22T05:18:08;95916.00;;;6.30
8227;BMP180;4154;48.810;9.012;2023-12-22T05:20:34;95925.00;;;6.40
8227;BMP180;4154;48.810;9.012;2023-12-22T05:23:00;95930.00;;;6.40
8227;BMP180;4154;48.810;9.012;2023-12-22T05:25:25;95916.00;;;6.40
8227;BMP180;4154;48.810;9.012;2023-12-22T05:27:51;95918.00;;;6.40
8227;BMP180;4154;48.810;9.012;2023-12-22T05:30:17;95934.00;;;6.50
8227;BMP180;4154;48.810;9.012;2023-12-22T05:32:44;95916.00;;;6.40
8227;BMP180;4154;48.810;9.012;2023-12-22T05:35:10;95927.00;;;6.40
8227;BMP180;4154;48.810;9.012;2023-12-22T05:37:36;95926.00;;;6.40
8227;BMP180;4154;48.810;9.012;2023-12-22T05:40:02;95924.00;;;6.50
8227;BMP180;4154;48.810;9.012;2023-12-22T05:42:28;95931.00;;;6.40
8227;BMP180;4154;48.810;9.012;2023-12-22T05:44:53;95934.00;;;6.50
8227;BMP180;4154;48.810;9.012;2023-12-22T05:47:19;95931.00;;;6.60
8227;BMP180;4154;48.810;9.012;2023-12-22T05:49:45;95939.00;;;6.60
8227;BMP180;4154;48.810;9.012;2023-12-22T05:52:12;95941.00;;;6.50
8227;BMP180;4154;48.810;9.012;2023-12-22T05:54:38;95958.00;;;6.60
8227;BMP180;4154;48.810;9.012;2023-12-22T05:57:04;95961.00;;;6.70
8227;BMP180;4154;48.810;9.012;2023-12-22T05:59:32;95982.00;;;6.80
8227;BMP180;4154;48.810;9.012;2023-12-22T06:01:58;95962.00;;;6.80
8227;BMP180;4154;48.810;9.012;2023-12-22T06:04:25;95953.00;;;6.80
8227;BMP180;4154;48.810;9.012;2023-12-22T06:06:51;95956.00;;;6.80
8227;BMP180;4154;48.810;9.012;2023-12-22T06:09:16;95956.00;;;6.80
8227;BMP180;4154;48.810;9.012;2023-12-22T06:11:45;95962.00;;;6.80
8227;BMP180;4154;48.810;9.012;2023-12-22T06:14:10;95957.00;;;6.80
8227;BMP180;4154;48.810;9.012;2023-12-22T06:16:37;95973.00;;;6.80
8227;BMP180;4154;48.810;9.012;2023-12-22T06:19:03;95954.00;;;6.80
8227;BMP180;4154;48.810;9.012;2023-12-22T06:21:29;95974.00;;;6.80
8227;BMP180;4154;48.810;9.012;2023-12-22T06:23:55;95997.00;;;6.70
8227;BMP180;4154;48.810;9.012;2023-12-22T06:26:20;95978.00;;;6.70
8227;BMP180;4154;48.810;9.012;2023-12-22T06:28:46;96001.00;;;6.80
8227;BMP180;4154;48.810;9.012;2023-12-22T06:31:21;96002.00;;;6.80
8227;BMP180;4154;48.810;9.012;2023-12-22T06:33:49;96016.00;;;6.80
8227;BMP180;4154;48.810;9.012;2023-12-22T06:36:23;95991.00;;;6.80
8227;BMP180;4154;48.810;9.012;2023-12-22T06:38:50;96017.00;;;6.80
8227;BMP180;4154;48.810;9.012;2023-12-22T06:41:23;96008.00;;;6.90
8227;BMP180;4154;48.810;9.012;2023-12-22T06:43:50;96002.00;;;7.00
8227;BMP180;4154;48.810;9.012;2023-12-22T06:46:17;96005.00;;;7.00
8227;BMP180;4154;48.810;9.012;2023-12-22T06:48:43;96014.00;;;7.00
8227;BMP180;4154;48.810;9.012;2023-12-22T06:51:29;96021.00;;;6.90
8227;BMP180;4154;48.810;9.012;2023-12-22T06:54:03;96029.00;;;6.90
8227;BMP180;4154;48.810;9.012;2023-12-22T06:56:32;96027.00;;;6.80
8227;BMP180;4154;48.810;9.012;2023-12-22T06:58:59;96021.00;;;6.90
8227;BMP180;4154;48.810;9.012;2023-12-22T07:01:29;96022.00;;;6.90
8227;BMP180;4154;48.810;9.012;2023-12-22T07:03:55;96047.00;;;6.80
8227;BMP180;4154;48.810;9.012;2023-12-22T07:06:23;96036.00;;;6.70
8227;BMP180;4154;48.810;9.012;2023-12-22T07:11:45;96058.00;;;6.70
8227;BMP180;4154;48.810;9.012;2023-12-22T07:14:11;96058.00;;;6.70
8227;BMP180;4154;48.810;9.012;2023-12-22T07:16:38;96055.00;;;6.70
8227;BMP180;4154;48.810;9.012;2023-12-22T07:19:05;96073.00;;;6.70
8227;BMP180;4154;48.810;9.012;2023-12-22T07:21:31;96078.00;;;6.70
8227;BMP180;4154;48.810;9.012;2023-12-22T07:23:57;96089.00;;;6.60
8227;BMP180;4154;48.810;9.012;2023-12-22T07:26:24;96072.00;;;6.60
8227;BMP180;4154;48.810;9.012;2023-12-22T07:28:52;96083.00;;;6.80
8227;BMP180;4154;48.810;9.012;2023-12-22T07:31:18;96083.00;;;6.70
8227;BMP180;4154;48.810;9.012;2023-12-22T07:33:44;96085.00;;;6.70
8227;BMP180;4154;48.810;9.012;2023-12-22T07:36:09;96096.00;;;6.80
8227;BMP180;4154;48.810;9.012;2023-12-22T07:38:37;96083.00;;;6.80
8227;BMP180;4154;48.810;9.012;2023-12-22T07:41:04;96074.00;;;6.80
8227;BMP180;4154;48.810;9.012;2023-12-22T07:43:30;96078.00;;;6.80
8227;BMP180;4154;48.810;9.012;2023-12-22T07:45:56;96092.00;;;6.80
8227;BMP180;4154;48.810;9.012;2023-12-22T07:48:21;96058.00;;;6.80
8227;BMP180;4154;48.810;9.012;2023-12-22T07:50:47;96075.00;;;6.70
8227;BMP180;4154;48.810;9.012;2023-12-22T07:53:13;96071.00;;;6.70
8227;BMP180;4154;48.810;9.012;2023-12-22T07:55:38;96078.00;;;6.60
8227;BMP180;4154;48.810;9.012;2023-12-22T07:58:05;96067.00;;;6.60
8227;BMP180;4154;48.810;9.012;2023-12-22T08:00:31;96068.00;;;6.60
8227;BMP180;4154;48.810;9.012;2023-12-22T08:02:57;96072.00;;;6.50
8227;BMP180;4154;48.810;9.012;2023-12-22T08:05:22;96088.00;;;6.60
8227;BMP180;4154;48.810;9.012;2023-12-22T08:07:49;96088.00;;;6.60
8227;BMP180;4154;48.810;9.012;2023-12-22T08:10:15;96083.00;;;6.60
8227;BMP180;4154;48.810;9.012;2023-12-22T08:12:42;96071.00;;;6.40
8227;BMP180;4154;48.810;9.012;2023-12-22T08:15:08;96088.00;;;6.40
8227;BMP180;4154;48.810;9.012;2023-12-22T08:17:36;96075.00;;;6.40
8227;BMP180;4154;48.810;9.012;2023-12-22T08:20:04;96096.00;;;6.30
8227;BMP180;4154;48.810;9.012;2023-12-22T08:22:29;96091.00;;;6.40
8227;BMP180;4154;48.810;9.012;2023-12-22T08:24:55;96089.00;;;6.30
8227;BMP180;4154;48.810;9.012;2023-12-22T08:27:20;96083.00;;;6.30
8227;BMP180;4154;48.810;9.012;2023-12-22T08:29:46;96078.00;;;6.20
8227;BMP180;4154;48.810;9.012;2023-12-22T08:32:12;96081.00;;;6.30
8227;BMP180;4154;48.810;9.012;2023-12-22T08:34:38;96056.00;;;6.40
8227;BMP180;4154;48.810;9.012;2023-12-22T08:37:03;96061.00;;;6.40
8227;BMP180;4154;48.810;9.012;2023-12-22T08:39:29;96058.00;;;6.50
8227;BMP180;4154;48.810;9.012;2023-12-22T08:41:55;96079.00;;;6.50
8227;BMP180;4154;48.810;9.012;2023-12-22T08:44:20;96073.00;;;6.40
8227;BMP180;4154;48.810;9.012;2023-12-22T08:46:46;96081.00;;;6.40
8227;BMP180;4154;48.810;9.012;2023-12-22T08:49:12;96073.00;;;6.50
8227;BMP180;4154;48.810;9.012;2023-12-22T08:51:37;96095.00;;;6.50
8227;BMP180;4154;48.810;9.012;2023-12-22T08:54:03;96075.00;;;6.60
8227;BMP180;4154;48.810;9.012;2023-12-22T08:56:32;96060.00;;;6.60
8227;BMP180;4154;48.810;9.012;2023-12-22T08:58:57;96077.00;;;6.60
8227;BMP180;4154;48.810;9.012;2023-12-22T09:01:26;96068.00;;;6.70
8227;BMP180;4154;48.810;9.012;2023-12-22T09:03:52;96081.00;;;6.70
8227;BMP180;4154;48.810;9.012;2023-12-22T09:06:20;96089.00;;;6.80
8227;BMP180;4154;48.810;9.012;2023-12-22T09:08:46;96084.00;;;6.80
8227;BMP180;4154;48.810;9.012;2023-12-22T09:11:15;96084.00;;;6.90
8227;BMP180;4154;48.810;9.012;2023-12-22T09:13:40;96094.00;;;7.00
8227;BMP180;4154;48.810;9.012;2023-12-22T09:16:07;96095.00;;;7.00
8227;BMP180;4154;48.810;9.012;2023-12-22T09:18:34;96107.00;;;7.00
8227;BMP180;4154;48.810;9.012;2023-12-22T09:21:00;96119.00;;;6.90
8227;BMP180;4154;48.810;9.012;2023-12-22T09:23:26;96094.00;;;6.90
8227;BMP180;4154;48.810;9.012;2023-12-22T09:25:53;96098.00;;;7.00
8227;BMP180;4154;48.810;9.012;2023-12-22T09:28:18;96090.00;;;7.10
8227;BMP180;4154;48.810;9.012;2023-12-22T09:30:44;96078.00;;;7.10
8227;BMP180;4154;48.810;9.012;2023-12-22T09:33:10;96096.00;;;7.10
8227;BMP180;4154;48.810;9.012;2023-12-22T09:35:36;96093.00;;;7.10
8227;BMP180;4154;48.810;9.012;2023-12-22T09:38:03;96112.00;;;7.10
8227;BMP180;4154;48.810;9.012;2023-12-22T09:40:29;96100.00;;;7.10
8227;BMP180;4154;48.810;9.012;2023-12-22T09:42:57;96115.00;;;7.20
8227;BMP180;4154;48.810;9.012;2023-12-22T09:45:24;96121.00;;;7.20
8227;BMP180;4154;48.810;9.012;2023-12-22T09:47:51;96136.00;;;7.20
8227;BMP180;4154;48.810;9.012;2023-12-22T09:50:18;96137.00;;;7.20
8227;BMP180;4154;48.810;9.012;2023-12-22T09:52:45;96130.00;;;7.20
8227;BMP180;4154;48.810;9.012;2023-12-22T09:55:14;96120.00;;;7.20
8227;BMP180;4154;48.810;9.012;2023-12-22T09:57:42;96120.00;;;7.20
8227;BMP180;4154;48.810;9.012;2023-12-22T10:00:12;96117.00;;;7.30
8227;BMP180;4154;48.810;9.012;2023-12-22T10:02:40;96125.00;;;7.20
8227;BMP180;4154;48.810;9.012;2023-12-22T10:05:07;96124.00;;;7.20
8227;BMP180;4154;48.810;9.012;2023-12-22T10:07:35;96107.00;;;7.20
8227;BMP180;4154;48.810;9.012;2023-12-22T10:10:01;96105.00;;;7.30
8227;BMP180;4154;48.810;9.012;2023-12-22T10:12:30;96095.00;;;7.20
8227;BMP180;4154;48.810;9.012;2023-12-22T10:14:59;96088.00;;;7.30
8227;BMP180;4154;48.810;9.012;2023-12-22T10:17:25;96097.00;;;7.30
8227;BMP180;4154;48.810;9.012;2023-12-22T10:19:51;96098.00;;;7.40
8227;BMP180;4154;48.810;9.012;2023-12-22T10:22:17;96088.00;;;7.40
8227;BMP180;4154;48.810;9.012;2023-12-22T10:24:46;96088.00;;;7.40
8227;BMP180;4154;48.810;9.012;2023-12-22T10:27:14;96086.00;;;7.40
8227;BMP180;4154;48.810;9.012;2023-12-22T10:29:41;96086.00;;;7.40
8227;BMP180;4154;48.810;9.012;2023-12-22T10:32:08;96078.00;;;7.40
8227;BMP180;4154;48.810;9.012;2023-12-22T10:34:34;96063.00;;;7.30
8227;BMP180;4154;48.810;9.012;2023-12-22T10:37:01;96084.00;;;7.30
8227;BMP180;4154;48.810;9.012;2023-12-22T10:39:31;96069.00;;;7.20
8227;BMP180;4154;48.810;9.012;2023-12-22T10:41:58;96055.00;;;7.20
8227;BMP180;4154;48.810;9.012;2023-12-22T10:44:29;96045.00;;;7.30
8227;BMP180;4154;48.810;9.012;2023-12-22T10:46:55;96052.00;;;7.20
8227;BMP180;4154;48.810;9.012;2023-12-22T10:49:22;96046.00;;;7.20
8227;BMP180;4154;48.810;9.012;2023-12-22T10:51:50;96050.00;;;7.20
8227;BMP180;4154;48.810;9.012;2023-12-22T10:54:16;96042.00;;;7.20
8227;BMP180;4154;48.810;9.012;2023-12-22T10:56:42;96049.00;;;7.20
8227;BMP180;4154;48.810;9.012;2023-12-22T10:59:11;96062.00;;;7.20
8227;BMP180;4154;48.810;9.012;2023-12-22T11:01:38;96044.00;;;7.10
8227;BMP180;4154;48.810;9.012;2023-12-22T11:04:08;96042.00;;;7.20
8227;BMP180;4154;48.810;9.012;2023-12-22T11:06:37;96039.00;;;7.10
8227;BMP180;4154;48.810;9.012;2023-12-22T11:09:08;96040.00;;;7.10
8227;BMP180;4154;48.810;9.012;2023-12-22T11:11:36;96058.00;;;7.10
8227;BMP180;4154;48.810;9.012;2023-12-22T11:14:04;96044.00;;;7.00
8227;BMP180;4154;48.810;9.012;2023-12-22T11:16:32;96048.00;;;7.00
8227;BMP180;4154;48.810;9.012;2023-12-22T11:19:00;96057.00;;;7.10
8227;BMP180;4154;48.810;9.012;2023-12-22T11:21:27;96066.00;;;7.10
8227;BMP180;4154;48.810;9.012;2023-12-22T11:23:54;96050.00;;;7.00
8227;BMP180;4154;48.810;9.012;2023-12-22T11:26:23;96045.00;;;7.00
8227;BMP180;4154;48.810;9.012;2023-12-22T11:28:50;96035.00;;;7.00
8227;BMP180;4154;48.810;9.012;2023-12-22T11:31:20;96028.00;;;6.90
8227;BMP180;4154;48.810;9.012;2023-12-22T11:33:48;96017.00;;;7.00
8227;BMP180;4154;48.810;9.012;2023-12-22T11:36:15;96014.00;;;7.00
8227;BMP180;4154;48.810;9.012;2023-12-22T11:38:43;96009.00;;;6.90
8227;BMP180;4154;48.810;9.012;2023-12-22T11:41:19;96008.00;;;6.90
8227;BMP180;4154;48.810;9.012;2023-12-22T11:43:48;95992.00;;;6.90
8227;BMP180;4154;48.810;9.012;2023-12-22T11:46:17;95998.00;;;6.80
8227;BMP180;4154;48.810;9.012;2023-12-22T11:48:48;96010.00;;;6.60
8227;BMP180;4154;48.810;9.012;2023-12-22T11:51:15;95984.00;;;6.70
8227;BMP180;4154;48.810;9.012;2023-12-22T11:53:41;95976.00;;;6.70
8227;BMP180;4154;48.810;9.012;2023-12-22T11:56:09;95957.00;;;6.70
8227;BMP180;4154;48.810;9.012;2023-12-22T11:58:43;95967.00;;;6.70
8227;BMP180;4154;48.810;9.012;2023-12-22T12:01:18;95945.00;;;6.50
8227;BMP180;4154;48.810;9.012;2023-12-22T12:04:10;95944.00;;;6.60
8227;BMP180;4154;48.810;9.012;2023-12-22T12:06:37;95937.00;;;6.60
8227;BMP180;4154;48.810;9.012;2023-12-22T12:09:06;95931.00;;;6.60
8227;BMP180;4154;48.810;9.012;2023-12-22T12:14:29;95923.00;;;6.60
8227;BMP180;4154;48.810;9.012;2023-12-22T12:17:06;95921.00;;;6.60
8227;BMP180;4154;48.810;9.012;2023-12-22T12:19:37;95909.00;;;6.70
8227;BMP180;4154;48.810;9.012;2023-12-22T12:22:03;95898.00;;;6.70
8227;BMP180;4154;48.810;9.012;2023-12-22T12:24:30;95909.00;;;6.70
8227;BMP180;4154;48.810;9.012;2023-12-22T12:26:56;95901.00;;;6.70
8227;BMP180;4154;48.810;9.012;2023-12-22T12:29:22;95899.00;;;6.70
8227;BMP180;4154;48.810;9.012;2023-12-22T12:31:48;95893.00;;;6.60
8227;BMP180;4154;48.810;9.012;2023-12-22T12:34:14;95891.00;;;6.70
8227;BMP180;4154;48.810;9.012;2023-12-22T12:36:43;95893.00;;;6.80
8227;BMP180;4154;48.810;9.012;2023-12-22T12:39:14;95907.00;;;6.80
8227;BMP180;4154;48.810;9.012;2023-12-22T12:41:42;95905.00;;;6.80
8227;BMP180;4154;48.810;9.012;2023-12-22T12:44:11;95897.00;;;6.80
8227;BMP180;4154;48.810;9.012;2023-12-22T12:46:39;95909.00;;;7.00
8227;BMP180;4154;48.810;9.012;2023-12-22T12:49:10;95900.00;;;7.00
8227;BMP180;4154;48.810;9.012;2023-12-22T12:51:46;95896.00;;;7.00
8227;BMP180;4154;48.810;9.012;2023-12-22T12:54:12;95902.00;;;7.00
8227;BMP180;4154;48.810;9.012;2023-12-22T12:56:40;95908.00;;;7.20
8227;BMP180;4154;48.810;9.012;2023-12-22T12:59:15;95908.00;;;7.30
8227;BMP180;4154;48.810;9.012;2023-12-22T13:01:43;95884.00;;;7.30
8227;BMP180;4154;48.810;9.012;2023-12-22T13:04:09;95902.00;;;7.30
8227;BMP180;4154;48.810;9.012;2023-12-22T13:06:45;95913.00;;;7.40
8227;BMP180;4154;48.810;9.012;2023-12-22T13:09:10;95917.00;;;7.50
8227;BMP180;4154;48.810;9.012;2023-12-22T13:11:37;95904.00;;;7.60
8227;BMP180;4154;48.810;9.012;2023-12-22T13:14:03;95909.00;;;7.60
8227;BMP180;4154;48.810;9.012;2023-12-22T13:16:31;95892.00;;;7.70
8227;BMP180;4154;48.810;9.012;2023-12-22T13:18:57;95896.00;;;7.70
8227;BMP180;4154;48.810;9.012;2023-12-22T13:21:24;95883.00;;;7.80
8227;BMP180;4154;48.810;9.012;2023-12-22T13:24:16;95879.00;;;7.80
8227;BMP180;4154;48.810;9.012;2023-12-22T13:26:43;95890.00;;;7.90
8227;BMP180;4154;48.810;9.012;2023-12-22T13:29:10;95882.00;;;7.90
8227;BMP180;4154;48.810;9.012;2023-12-22T13:31:38;95880.00;;;8.00
8227;BMP180;4154;48.810;9.012;2023-12-22T13:34:13;95890.00;;;8.00
8227;BMP180;4154;48.810;9.012;2023-12-22T13:36:39;95899.00;;;8.00
8227;BMP180;4154;48.810;9.012;2023-12-22T13:39:06;95900.00;;;8.00
8227;BMP180;4154;48.810;9.012;2023-12-22T13:41:39;95920.00;;;8.00
8227;BMP180;4154;48.810;9.012;2023-12-22T13:44:11;95882.00;;;8.10
8227;BMP180;4154;48.810;9.012;2023-12-22T13:46:40;95875.00;;;8.20
8227;BMP180;4154;48.810;9.012;2023-12-22T13:49:11;95892.00;;;8.20
8227;BMP180;4154;48.810;9.012;2023-12-22T13:51:41;95884.00;;;8.20
8227;BMP180;4154;48.810;9.012;2023-12-22T13:54:07;95903.00;;;8.20
8227;BMP180;4154;48.810;9.012;2023-12-22T13:56:35;95878.00;;;8.20
8227;BMP180;4154;48.810;9.012;2023-12-22T13:59:02;95879.00;;;8.20
8227;BMP180;4154;48.810;9.012;2023-12-22T14:01:28;95892.00;;;8.20
8227;BMP180;4154;48.810;9.012;2023-12-22T14:03:54;95894.00;;;8.20
8227;BMP180;4154;48.810;9.012;2023-12-22T14:06:20;95873.00;;;8.30
8227;BMP180;4154;48.810;9.012;2023-12-22T14:08:46;95865.00;;;8.20
8227;BMP180;4154;48.810;9.012;2023-12-22T14:11:12;95873.00;;;8.20
8227;BMP180;4154;48.810;9.012;2023-12-22T14:13:40;95872.00;;;8.20
8227;BMP180;4154;48.810;9.012;2023-12-22T14:16:07;95884.00;;;8.30
8227;BMP180;4154;48.810;9.012;2023-12-22T14:18:32;95898.00;;;8.30
8227;BMP180;4154;48.810;9.012;2023-12-22T14:20:58;95875.00;;;8.40
8227;BMP180;4154;48.810;9.012;2023-12-22T14:23:26;95897.00;;;8.40
8227;BMP180;4154;48.810;9.012;2023-12-22T14:25:52;95895.00;;;8.40
8227;BMP180;4154;48.810;9.012;2023-12-22T14:28:18;95902.00;;;8.40
8227;BMP180;4154;48.810;9.012;2023-12-22T14:30:44;95916.00;;;8.50
8227;BMP180;4154;48.810;9.012;2023-12-22T14:33:10;95914.00;;;8.50
8227;BMP180;4154;48.810;9.012;2023-12-22T14:35:36;95947.00;;;8.50
8227;BMP180;4154;48.810;9.012;2023-12-22T14:38:02;95931.00;;;8.50
8227;BMP180;4154;48.810;9.012;2023-12-22T14:40:29;95929.00;;;8.50
8227;BMP180;4154;48.810;9.012;2023-12-22T14:42:54;95942.00;;;8.50
8227;BMP180;4154;48.810;9.012;2023-12-22T14:45:20;95980.00;;;8.50
8227;BMP180;4154;48.810;9.012;2023-12-22T14:47:45;95939.00;;;8.50
8227;BMP180;4154;48.810;9.012;2023-12-22T14:50:11;95938.00;;;8.50
8227;BMP180;4154;48.810;9.012;2023-12-22T14:52:37;95926.00;;;8.50
8227;BMP180;4154;48.810;9.012;2023-12-22T14:55:03;95923.00;;;8.50
8227;BMP180;4154;48.810;9.012;2023-12-22T14:57:32;95937.00;;;8.60